Terminal Aerodrome Forecast
Issued by NWS Buffalo, NY

Home | Current Version | Previous Version | Text Only | Print | Product List | Glossary On
Versions: 1 2 3 4 5 6 7 8 9 10 11 12 13 14 15 16 17 18 19 20 21 22 23 24
000
FTUS41 KBUF 100534
TAFBUF
TAF
KBUF 100534Z 1006/1106 29007KT P6SM VCSH OVC060
     FM100900 VRB03KT P6SM BKN040
     FM101200 25005KT 6SM -SHSN OVC040
     FM101600 26014G20KT P6SM BKN050
     FM102200 26008KT P6SM SCT080=

USA.gov is the U.S. government's official web portal to all federal, state and local government web resources and services.